sensor_id;sensor_type;location;lat;lon;timestamp;P1;durP1;ratioP1;P2;durP2;ratioP2
64403;SDS011;50726;54.912;-8.392;2022-09-03T00:01:09;313.67;;;296.38;;
64403;SDS011;50726;54.912;-8.392;2022-09-03T00:03:42;304.88;;;288.15;;
64403;SDS011;50726;54.912;-8.392;2022-09-03T00:06:12;332.83;;;314.60;;
64403;SDS011;50726;54.912;-8.392;2022-09-03T00:11:26;313.45;;;296.23;;
64403;SDS011;50726;54.912;-8.392;2022-09-03T00:14:05;331.20;;;313.10;;
64403;SDS011;50726;54.912;-8.392;2022-09-03T00:16:58;301.67;;;284.90;;
64403;SDS011;50726;54.912;-8.392;2022-09-03T00:19:26;287.83;;;271.52;;
64403;SDS011;50726;54.912;-8.392;2022-09-03T00:22:02;319.45;;;301.85;;
64403;SDS011;50726;54.912;-8.392;2022-09-03T00:24:35;325.40;;;307.60;;
64403;SDS011;50726;54.912;-8.392;2022-09-03T00:27:05;345.23;;;326.38;;
64403;SDS011;50726;54.912;-8.392;2022-09-03T00:29:42;317.45;;;299.77;;
64403;SDS011;50726;54.912;-8.392;2022-09-03T00:32:27;319.75;;;302.27;;
64403;SDS011;50726;54.912;-8.392;2022-09-03T00:35:02;307.45;;;290.58;;
64403;SDS011;50726;54.912;-8.392;2022-09-03T00:37:33;335.70;;;317.40;;
64403;SDS011;50726;54.912;-8.392;2022-09-03T00:39:59;330.23;;;312.15;;
64403;SDS011;50726;54.912;-8.392;2022-09-03T00:42:33;332.27;;;313.98;;
64403;SDS011;50726;54.912;-8.392;2022-09-03T00:45:14;318.70;;;301.38;;
64403;SDS011;50726;54.912;-8.392;2022-09-03T00:51:08;347.08;;;328.08;;
64403;SDS011;50726;54.912;-8.392;2022-09-03T00:53:58;346.40;;;327.17;;
64403;SDS011;50726;54.912;-8.392;2022-09-03T00:56:49;365.25;;;344.98;;
64403;SDS011;50726;54.912;-8.392;2022-09-03T01:02:18;347.92;;;328.00;;
64403;SDS011;50726;54.912;-8.392;2022-09-03T01:05:02;361.33;;;340.88;;
64403;SDS011;50726;54.912;-8.392;2022-09-03T01:07:34;379.20;;;357.88;;
64403;SDS011;50726;54.912;-8.392;2022-09-03T01:15:58;367.40;;;347.25;;
64403;SDS011;50726;54.912;-8.392;2022-09-03T01:23:56;327.60;;;309.40;;
64403;SDS011;50726;54.912;-8.392;2022-09-03T01:29:44;318.73;;;300.92;;
64403;SDS011;50726;54.912;-8.392;2022-09-03T01:35:11;345.33;;;325.98;;
64403;SDS011;50726;54.912;-8.392;2022-09-03T01:37:55;347.30;;;327.73;;
64403;SDS011;50726;54.912;-8.392;2022-09-03T01:43:03;319.10;;;301.20;;
64403;SDS011;50726;54.912;-8.392;2022-09-03T01:45:33;365.30;;;344.85;;
64403;SDS011;50726;54.912;-8.392;2022-09-03T01:51:20;370.15;;;349.58;;
64403;SDS011;50726;54.912;-8.392;2022-09-03T01:59:43;365.73;;;345.30;;
64403;SDS011;50726;54.912;-8.392;2022-09-03T02:02:21;365.45;;;345.38;;
64403;SDS011;50726;54.912;-8.392;2022-09-03T02:10:03;388.67;;;366.83;;
64403;SDS011;50726;54.912;-8.392;2022-09-03T02:12:34;341.35;;;322.13;;
64403;SDS011;50726;54.912;-8.392;2022-09-03T02:15:04;343.27;;;324.02;;
64403;SDS011;50726;54.912;-8.392;2022-09-03T02:17:34;348.23;;;328.73;;
64403;SDS011;50726;54.912;-8.392;2022-09-03T02:20:03;339.00;;;320.30;;
64403;SDS011;50726;54.912;-8.392;2022-09-03T02:22:32;360.10;;;340.08;;
64403;SDS011;50726;54.912;-8.392;2022-09-03T02:24:59;370.15;;;349.00;;
64403;SDS011;50726;54.912;-8.392;2022-09-03T02:27:25;381.98;;;361.05;;
64403;SDS011;50726;54.912;-8.392;2022-09-03T02:29:51;373.42;;;353.08;;
64403;SDS011;50726;54.912;-8.392;2022-09-03T02:32:17;384.17;;;363.27;;
64403;SDS011;50726;54.912;-8.392;2022-09-03T02:34:43;399.90;;;378.20;;
64403;SDS011;50726;54.912;-8.392;2022-09-03T02:37:13;417.20;;;394.85;;
64403;SDS011;50726;54.912;-8.392;2022-09-03T02:39:40;390.85;;;369.73;;
64403;SDS011;50726;54.912;-8.392;2022-09-03T02:42:06;401.33;;;379.80;;
64403;SDS011;50726;54.912;-8.392;2022-09-03T02:44:34;413.35;;;391.00;;
64403;SDS011;50726;54.912;-8.392;2022-09-03T02:47:06;366.30;;;345.38;;
64403;SDS011;50726;54.912;-8.392;2022-09-03T02:49:33;376.08;;;354.88;;
64403;SDS011;50726;54.912;-8.392;2022-09-03T02:52:00;395.30;;;373.15;;
64403;SDS011;50726;54.912;-8.392;2022-09-03T02:54:33;364.58;;;343.90;;
64403;SDS011;50726;54.912;-8.392;2022-09-03T02:57:04;359.98;;;339.83;;
64403;SDS011;50726;54.912;-8.392;2022-09-03T02:59:33;377.08;;;355.65;;
64403;SDS011;50726;54.912;-8.392;2022-09-03T03:02:00;355.60;;;335.90;;
64403;SDS011;50726;54.912;-8.392;2022-09-03T03:04:26;357.10;;;336.55;;
64403;SDS011;50726;54.912;-8.392;2022-09-03T03:06:52;351.88;;;331.75;;
64403;SDS011;50726;54.912;-8.392;2022-09-03T03:09:18;339.55;;;320.25;;
64403;SDS011;50726;54.912;-8.392;2022-09-03T03:11:44;348.05;;;327.65;;
64403;SDS011;50726;54.912;-8.392;2022-09-03T03:14:11;351.83;;;331.20;;
64403;SDS011;50726;54.912;-8.392;2022-09-03T03:16:36;338.35;;;319.00;;
64403;SDS011;50726;54.912;-8.392;2022-09-03T03:19:02;349.02;;;329.25;;
64403;SDS011;50726;54.912;-8.392;2022-09-03T03:21:28;341.50;;;322.40;;
64403;SDS011;50726;54.912;-8.392;2022-09-03T03:23:54;370.55;;;349.85;;
64403;SDS011;50726;54.912;-8.392;2022-09-03T03:26:20;392.27;;;370.13;;
64403;SDS011;50726;54.912;-8.392;2022-09-03T03:28:48;426.75;;;403.02;;
64403;SDS011;50726;54.912;-8.392;2022-09-03T03:31:21;438.17;;;414.05;;
64403;SDS011;50726;54.912;-8.392;2022-09-03T03:33:54;397.98;;;375.70;;
64403;SDS011;50726;54.912;-8.392;2022-09-03T03:36:22;397.45;;;375.33;;
64403;SDS011;50726;54.912;-8.392;2022-09-03T03:38:51;372.63;;;350.83;;
64403;SDS011;50726;54.912;-8.392;2022-09-03T03:41:19;399.85;;;376.98;;
64403;SDS011;50726;54.912;-8.392;2022-09-03T03:43:46;403.67;;;381.27;;
64403;SDS011;50726;54.912;-8.392;2022-09-03T03:46:19;414.08;;;390.85;;
64403;SDS011;50726;54.912;-8.392;2022-09-03T03:48:49;396.95;;;374.08;;
64403;SDS011;50726;54.912;-8.392;2022-09-03T03:51:16;375.40;;;353.90;;
64403;SDS011;50726;54.912;-8.392;2022-09-03T03:53:43;405.73;;;382.67;;
64403;SDS011;50726;54.912;-8.392;2022-09-03T03:56:10;437.58;;;412.70;;
64403;SDS011;50726;54.912;-8.392;2022-09-03T03:58:39;458.02;;;432.65;;
64403;SDS011;50726;54.912;-8.392;2022-09-03T04:01:08;467.45;;;441.35;;
64403;SDS011;50726;54.912;-8.392;2022-09-03T04:03:36;393.15;;;370.02;;
64403;SDS011;50726;54.912;-8.392;2022-09-03T04:06:03;431.73;;;406.17;;
64403;SDS011;50726;54.912;-8.392;2022-09-03T04:08:30;396.60;;;373.67;;
64403;SDS011;50726;54.912;-8.392;2022-09-03T04:10:59;451.13;;;425.65;;
64403;SDS011;50726;54.912;-8.392;2022-09-03T04:13:30;464.67;;;438.73;;
64403;SDS011;50726;54.912;-8.392;2022-09-03T04:16:03;479.83;;;452.92;;
64403;SDS011;50726;54.912;-8.392;2022-09-03T04:18:34;479.67;;;452.73;;
64403;SDS011;50726;54.912;-8.392;2022-09-03T04:21:02;469.13;;;442.88;;
64403;SDS011;50726;54.912;-8.392;2022-09-03T04:23:32;442.25;;;417.35;;
64403;SDS011;50726;54.912;-8.392;2022-09-03T04:25:59;463.33;;;437.52;;
64403;SDS011;50726;54.912;-8.392;2022-09-03T04:28:25;465.95;;;440.08;;
64403;SDS011;50726;54.912;-8.392;2022-09-03T04:30:51;460.65;;;435.17;;
64403;SDS011;50726;54.912;-8.392;2022-09-03T04:33:17;413.50;;;389.80;;
64403;SDS011;50726;54.912;-8.392;2022-09-03T04:35:43;450.80;;;425.20;;
64403;SDS011;50726;54.912;-8.392;2022-09-03T04:38:08;427.85;;;403.85;;
64403;SDS011;50726;54.912;-8.392;2022-09-03T04:40:35;387.23;;;364.65;;
64403;SDS011;50726;54.912;-8.392;2022-09-03T04:43:01;406.75;;;383.05;;
64403;SDS011;50726;54.912;-8.392;2022-09-03T04:45:28;394.15;;;371.25;;
64403;SDS011;50726;54.912;-8.392;2022-09-03T04:47:55;423.52;;;399.48;;
64403;SDS011;50726;54.912;-8.392;2022-09-03T04:50:25;434.75;;;410.27;;
64403;SDS011;50726;54.912;-8.392;2022-09-03T04:53:00;446.95;;;421.95;;
64403;SDS011;50726;54.912;-8.392;2022-09-03T04:55:31;442.30;;;417.25;;
64403;SDS011;50726;54.912;-8.392;2022-09-03T04:58:00;439.77;;;414.67;;
64403;SDS011;50726;54.912;-8.392;2022-09-03T05:00:26;450.70;;;425.02;;
64403;SDS011;50726;54.912;-8.392;2022-09-03T05:02:52;446.17;;;420.77;;
64403;SDS011;50726;54.912;-8.392;2022-09-03T05:05:18;435.13;;;410.48;;
64403;SDS011;50726;54.912;-8.392;2022-09-03T05:07:45;421.15;;;397.33;;
64403;SDS011;50726;54.912;-8.392;2022-09-03T05:10:11;441.80;;;416.60;;
64403;SDS011;50726;54.912;-8.392;2022-09-03T05:12:44;375.80;;;353.45;;
64403;SDS011;50726;54.912;-8.392;2022-09-03T05:15:11;372.75;;;350.45;;
64403;SDS011;50726;54.912;-8.392;2022-09-03T05:17:38;372.92;;;350.63;;
64403;SDS011;50726;54.912;-8.392;2022-09-03T05:20:04;342.52;;;322.02;;
64403;SDS011;50726;54.912;-8.392;2022-09-03T05:22:34;351.77;;;330.75;;
64403;SDS011;50726;54.912;-8.392;2022-09-03T05:25:00;351.95;;;330.88;;
64403;SDS011;50726;54.912;-8.392;2022-09-03T05:27:25;321.15;;;302.08;;
64403;SDS011;50726;54.912;-8.392;2022-09-03T05:32:21;319.63;;;300.83;;
64403;SDS011;50726;54.912;-8.392;2022-09-03T05:34:46;336.77;;;317.20;;
64403;SDS011;50726;54.912;-8.392;2022-09-03T05:37:13;330.50;;;311.48;;
64403;SDS011;50726;54.912;-8.392;2022-09-03T05:39:39;328.67;;;309.35;;
64403;SDS011;50726;54.912;-8.392;2022-09-03T05:42:04;335.45;;;316.15;;
64403;SDS011;50726;54.912;-8.392;2022-09-03T05:44:30;326.30;;;307.25;;
64403;SDS011;50726;54.912;-8.392;2022-09-03T05:46:56;331.42;;;312.13;;
64403;SDS011;50726;54.912;-8.392;2022-09-03T05:49:22;318.92;;;300.65;;
64403;SDS011;50726;54.912;-8.392;2022-09-03T05:51:47;316.45;;;298.40;;
64403;SDS011;50726;54.912;-8.392;2022-09-03T05:54:13;323.40;;;304.88;;
64403;SDS011;50726;54.912;-8.392;2022-09-03T05:56:39;316.55;;;298.20;;
64403;SDS011;50726;54.912;-8.392;2022-09-03T05:59:07;311.48;;;293.38;;
64403;SDS011;50726;54.912;-8.392;2022-09-03T06:01:34;306.23;;;288.25;;
64403;SDS011;50726;54.912;-8.392;2022-09-03T06:04:11;294.77;;;277.25;;
64403;SDS011;50726;54.912;-8.392;2022-09-03T06:06:39;306.98;;;289.55;;
64403;SDS011;50726;54.912;-8.392;2022-09-03T06:09:08;308.13;;;290.80;;
64403;SDS011;50726;54.912;-8.392;2022-09-03T06:11:36;331.30;;;312.90;;
64403;SDS011;50726;54.912;-8.392;2022-09-03T06:14:06;321.65;;;303.63;;
64403;SDS011;50726;54.912;-8.392;2022-09-03T06:16:34;305.65;;;288.08;;
64403;SDS011;50726;54.912;-8.392;2022-09-03T06:19:04;320.88;;;302.73;;
64403;SDS011;50726;54.912;-8.392;2022-09-03T06:21:36;313.67;;;295.98;;
64403;SDS011;50726;54.912;-8.392;2022-09-03T06:24:10;324.95;;;306.60;;
64403;SDS011;50726;54.912;-8.392;2022-09-03T06:26:38;353.33;;;333.38;;
64403;SDS011;50726;54.912;-8.392;2022-09-03T06:29:04;332.38;;;313.42;;
64403;SDS011;50726;54.912;-8.392;2022-09-03T06:31:30;334.42;;;315.63;;
64403;SDS011;50726;54.912;-8.392;2022-09-03T06:33:57;344.35;;;325.35;;
64403;SDS011;50726;54.912;-8.392;2022-09-03T06:36:23;345.70;;;326.38;;
64403;SDS011;50726;54.912;-8.392;2022-09-03T06:38:54;345.45;;;326.08;;
64403;SDS011;50726;54.912;-8.392;2022-09-03T06:41:22;361.95;;;341.85;;
64403;SDS011;50726;54.912;-8.392;2022-09-03T06:43:51;382.73;;;362.02;;
64403;SDS011;50726;54.912;-8.392;2022-09-03T06:46:20;343.27;;;324.27;;
64403;SDS011;50726;54.912;-8.392;2022-09-03T06:48:48;371.17;;;350.52;;
64403;SDS011;50726;54.912;-8.392;2022-09-03T06:51:19;404.85;;;382.58;;
64403;SDS011;50726;54.912;-8.392;2022-09-03T06:53:50;398.23;;;376.27;;
64403;SDS011;50726;54.912;-8.392;2022-09-03T06:56:20;395.88;;;374.05;;
64403;SDS011;50726;54.912;-8.392;2022-09-03T06:58:55;404.38;;;382.30;;
64403;SDS011;50726;54.912;-8.392;2022-09-03T07:01:24;427.58;;;404.38;;
64403;SDS011;50726;54.912;-8.392;2022-09-03T07:03:52;432.77;;;409.00;;
64403;SDS011;50726;54.912;-8.392;2022-09-03T07:06:24;424.90;;;401.30;;
64403;SDS011;50726;54.912;-8.392;2022-09-03T07:08:51;442.02;;;417.95;;
64403;SDS011;50726;54.912;-8.392;2022-09-03T07:11:18;430.02;;;406.35;;
64403;SDS011;50726;54.912;-8.392;2022-09-03T07:13:50;437.75;;;413.75;;
64403;SDS011;50726;54.912;-8.392;2022-09-03T07:16:21;448.63;;;423.88;;
64403;SDS011;50726;54.912;-8.392;2022-09-03T07:18:49;442.52;;;418.08;;
64403;SDS011;50726;54.912;-8.392;2022-09-03T07:21:20;471.33;;;445.42;;
64403;SDS011;50726;54.912;-8.392;2022-09-03T07:23:49;464.85;;;438.73;;
64403;SDS011;50726;54.912;-8.392;2022-09-03T07:26:19;456.92;;;431.13;;
64403;SDS011;50726;54.912;-8.392;2022-09-03T07:28:47;439.63;;;414.80;;
64403;SDS011;50726;54.912;-8.392;2022-09-03T07:31:15;436.42;;;412.17;;
64403;SDS011;50726;54.912;-8.392;2022-09-03T07:33:57;421.00;;;397.38;;
64403;SDS011;50726;54.912;-8.392;2022-09-03T07:36:25;413.38;;;390.08;;
64403;SDS011;50726;54.912;-8.392;2022-09-03T07:38:55;413.80;;;390.48;;
64403;SDS011;50726;54.912;-8.392;2022-09-03T07:41:23;429.98;;;406.05;;
64403;SDS011;50726;54.912;-8.392;2022-09-03T07:43:52;420.92;;;397.20;;
64403;SDS011;50726;54.912;-8.392;2022-09-03T07:48:52;420.17;;;396.42;;
64403;SDS011;50726;54.912;-8.392;2022-09-03T07:51:37;414.83;;;391.05;;
64403;SDS011;50726;54.912;-8.392;2022-09-03T07:54:06;392.00;;;369.15;;
64403;SDS011;50726;54.912;-8.392;2022-09-03T07:56:35;392.75;;;370.15;;
64403;SDS011;50726;54.912;-8.392;2022-09-03T07:59:04;377.05;;;355.80;;
64403;SDS011;50726;54.912;-8.392;2022-09-03T08:01:31;368.10;;;347.50;;
64403;SDS011;50726;54.912;-8.392;2022-09-03T08:03:59;367.52;;;347.00;;
64403;SDS011;50726;54.912;-8.392;2022-09-03T08:06:26;365.00;;;344.27;;
64403;SDS011;50726;54.912;-8.392;2022-09-03T08:08:57;358.10;;;337.90;;
64403;SDS011;50726;54.912;-8.392;2022-09-03T08:11:26;367.42;;;346.00;;
64403;SDS011;50726;54.912;-8.392;2022-09-03T08:13:55;368.95;;;347.83;;
64403;SDS011;50726;54.912;-8.392;2022-09-03T08:16:30;356.45;;;336.23;;
64403;SDS011;50726;54.912;-8.392;2022-09-03T08:18:57;345.00;;;325.35;;
64403;SDS011;50726;54.912;-8.392;2022-09-03T08:21:32;341.98;;;322.35;;
64403;SDS011;50726;54.912;-8.392;2022-09-03T08:24:02;329.35;;;310.33;;
64403;SDS011;50726;54.912;-8.392;2022-09-03T08:26:33;333.70;;;314.70;;
64403;SDS011;50726;54.912;-8.392;2022-09-03T08:29:01;315.48;;;297.52;;
64403;SDS011;50726;54.912;-8.392;2022-09-03T08:33:57;304.58;;;287.35;;
64403;SDS011;50726;54.912;-8.392;2022-09-03T08:36:34;301.83;;;284.73;;
64403;SDS011;50726;54.912;-8.392;2022-09-03T08:39:02;318.33;;;300.42;;
64403;SDS011;50726;54.912;-8.392;2022-09-03T08:49:44;282.42;;;266.85;;
64403;SDS011;50726;54.912;-8.392;2022-09-03T08:52:27;298.45;;;282.17;;
64403;SDS011;50726;54.912;-8.392;2022-09-03T09:00:28;263.77;;;249.60;;
64403;SDS011;50726;54.912;-8.392;2022-09-03T09:03:28;257.27;;;243.60;;
64403;SDS011;50726;54.912;-8.392;2022-09-03T09:08:56;252.82;;;239.13;;
64403;SDS011;50726;54.912;-8.392;2022-09-03T09:14:30;261.17;;;247.00;;
64403;SDS011;50726;54.912;-8.392;2022-09-03T09:20:21;294.88;;;279.02;;
64403;SDS011;50726;54.912;-8.392;2022-09-03T09:23:13;280.88;;;265.63;;
64403;SDS011;50726;54.912;-8.392;2022-09-03T09:25:50;262.15;;;248.20;;
64403;SDS011;50726;54.912;-8.392;2022-09-03T09:28:22;268.42;;;253.75;;
64403;SDS011;50726;54.912;-8.392;2022-09-03T09:30:51;267.95;;;253.60;;
64403;SDS011;50726;54.912;-8.392;2022-09-03T09:35:45;259.27;;;245.43;;
64403;SDS011;50726;54.912;-8.392;2022-09-03T09:38:11;253.38;;;239.52;;
64403;SDS011;50726;54.912;-8.392;2022-09-03T09:40:44;251.40;;;237.73;;
64403;SDS011;50726;54.912;-8.392;2022-09-03T09:43:16;229.88;;;217.40;;
64403;SDS011;50726;54.912;-8.392;2022-09-03T09:45:48;225.02;;;213.10;;
64403;SDS011;50726;54.912;-8.392;2022-09-03T09:48:22;234.45;;;222.27;;
64403;SDS011;50726;54.912;-8.392;2022-09-03T09:51:06;237.25;;;224.73;;
64403;SDS011;50726;54.912;-8.392;2022-09-03T09:53:36;223.50;;;211.77;;
64403;SDS011;50726;54.912;-8.392;2022-09-03T09:58:32;199.63;;;189.20;;
64403;SDS011;50726;54.912;-8.392;2022-09-03T10:01:02;198.40;;;188.02;;
64403;SDS011;50726;54.912;-8.392;2022-09-03T10:06:13;226.38;;;214.35;;
64403;SDS011;50726;54.912;-8.392;2022-09-03T10:09:11;229.13;;;217.35;;
64403;SDS011;50726;54.912;-8.392;2022-09-03T10:14:43;248.30;;;235.23;;
64403;SDS011;50726;54.912;-8.392;2022-09-03T10:17:05;235.32;;;222.93;;
64403;SDS011;50726;54.912;-8.392;2022-09-03T10:26:25;208.52;;;197.73;;
64403;SDS011;50726;54.912;-8.392;2022-09-03T10:31:39;188.50;;;178.65;;
64403;SDS011;50726;54.912;-8.392;2022-09-03T10:40:13;175.07;;;165.93;;
64403;SDS011;50726;54.912;-8.392;2022-09-03T10:46:05;175.10;;;166.15;;
64403;SDS011;50726;54.912;-8.392;2022-09-03T10:51:35;176.55;;;167.45;;
64403;SDS011;50726;54.912;-8.392;2022-09-03T11:02:46;182.85;;;173.52;;
64403;SDS011;50726;54.912;-8.392;2022-09-03T11:05:57;175.90;;;166.88;;
64403;SDS011;50726;54.912;-8.392;2022-09-03T11:08:35;168.90;;;160.23;;
64403;SDS011;50726;54.912;-8.392;2022-09-03T11:11:16;168.70;;;160.18;;
64403;SDS011;50726;54.912;-8.392;2022-09-03T11:16:19;186.93;;;176.00;;
64403;SDS011;50726;54.912;-8.392;2022-09-03T11:18:54;206.65;;;195.95;;
64403;SDS011;50726;54.912;-8.392;2022-09-03T11:21:27;237.98;;;225.85;;
64403;SDS011;50726;54.912;-8.392;2022-09-03T11:26:33;270.67;;;256.70;;
64403;SDS011;50726;54.912;-8.392;2022-09-03T11:29:19;273.90;;;259.50;;
64403;SDS011;50726;54.912;-8.392;2022-09-03T11:32:17;254.43;;;241.20;;
64403;SDS011;50726;54.912;-8.392;2022-09-03T11:37:23;292.98;;;277.85;;
64403;SDS011;50726;54.912;-8.392;2022-09-03T11:39:55;290.58;;;275.35;;
64403;SDS011;50726;54.912;-8.392;2022-09-03T11:42:29;308.05;;;291.90;;
64403;SDS011;50726;54.912;-8.392;2022-09-03T11:44:59;321.17;;;304.38;;
64403;SDS011;50726;54.912;-8.392;2022-09-03T11:47:44;333.27;;;315.50;;
64403;SDS011;50726;54.912;-8.392;2022-09-03T11:50:22;336.35;;;318.75;;
64403;SDS011;50726;54.912;-8.392;2022-09-03T11:52:49;321.70;;;304.65;;
64403;SDS011;50726;54.912;-8.392;2022-09-03T11:55:52;248.10;;;234.77;;
64403;SDS011;50726;54.912;-8.392;2022-09-03T12:01:07;214.30;;;203.13;;
64403;SDS011;50726;54.912;-8.392;2022-09-03T12:06:20;234.07;;;221.70;;
64403;SDS011;50726;54.912;-8.392;2022-09-03T12:17:25;311.52;;;295.02;;
64403;SDS011;50726;54.912;-8.392;2022-09-03T12:20:35;338.15;;;320.20;;
64403;SDS011;50726;54.912;-8.392;2022-09-03T12:23:00;343.33;;;325.05;;
64403;SDS011;50726;54.912;-8.392;2022-09-03T12:25:27;362.38;;;343.38;;
64403;SDS011;50726;54.912;-8.392;2022-09-03T12:27:53;362.48;;;343.63;;
64403;SDS011;50726;54.912;-8.392;2022-09-03T12:30:22;377.95;;;357.95;;
64403;SDS011;50726;54.912;-8.392;2022-09-03T12:32:50;413.50;;;391.65;;
64403;SDS011;50726;54.912;-8.392;2022-09-03T12:35:20;403.20;;;381.95;;
64403;SDS011;50726;54.912;-8.392;2022-09-03T12:37:50;424.88;;;402.77;;
64403;SDS011;50726;54.912;-8.392;2022-09-03T12:40:21;479.02;;;454.70;;
64403;SDS011;50726;54.912;-8.392;2022-09-03T12:42:48;455.95;;;432.58;;
64403;SDS011;50726;54.912;-8.392;2022-09-03T12:45:17;417.58;;;395.08;;
64403;SDS011;50726;54.912;-8.392;2022-09-03T12:47:45;413.60;;;390.60;;
64403;SDS011;50726;54.912;-8.392;2022-09-03T12:50:14;393.65;;;372.60;;
64403;SDS011;50726;54.912;-8.392;2022-09-03T12:52:48;381.90;;;361.65;;
64403;SDS011;50726;54.912;-8.392;2022-09-03T12:58:16;350.08;;;331.88;;
64403;SDS011;50726;54.912;-8.392;2022-09-03T13:05:57;339.98;;;322.08;;
64403;SDS011;50726;54.912;-8.392;2022-09-03T13:08:28;374.15;;;354.70;;
64403;SDS011;50726;54.912;-8.392;2022-09-03T13:11:00;344.50;;;326.50;;
64403;SDS011;50726;54.912;-8.392;2022-09-03T13:13:32;321.33;;;304.67;;
64403;SDS011;50726;54.912;-8.392;2022-09-03T13:33:39;334.00;;;316.33;;
64403;SDS011;50726;54.912;-8.392;2022-09-03T13:44:10;343.80;;;325.60;;
64403;SDS011;50726;54.912;-8.392;2022-09-03T13:52:24;346.63;;;327.58;;
64403;SDS011;50726;54.912;-8.392;2022-09-03T13:55:20;363.20;;;343.75;;
64403;SDS011;50726;54.912;-8.392;2022-09-03T13:58:49;364.80;;;345.33;;
64403;SDS011;50726;54.912;-8.392;2022-09-03T14:03:30;358.70;;;339.55;;
64403;SDS011;50726;54.912;-8.392;2022-09-03T14:06:07;363.13;;;343.58;;
64403;SDS011;50726;54.912;-8.392;2022-09-03T14:12:01;388.48;;;366.80;;
64403;SDS011;50726;54.912;-8.392;2022-09-03T14:25:27;434.83;;;412.10;;
64403;SDS011;50726;54.912;-8.392;2022-09-03T14:27:53;455.77;;;432.27;;
64403;SDS011;50726;54.912;-8.392;2022-09-03T14:30:46;444.27;;;420.88;;
64403;SDS011;50726;54.912;-8.392;2022-09-03T14:33:45;463.75;;;439.63;;
64403;SDS011;50726;54.912;-8.392;2022-09-03T14:36:53;429.60;;;406.85;;
64403;SDS011;50726;54.912;-8.392;2022-09-03T14:39:29;441.33;;;417.83;;
64403;SDS011;50726;54.912;-8.392;2022-09-03T14:47:41;515.92;;;488.95;;
64403;SDS011;50726;54.912;-8.392;2022-09-03T15:12:02;469.60;;;444.92;;
64403;SDS011;50726;54.912;-8.392;2022-09-03T15:14:37;452.10;;;428.20;;
64403;SDS011;50726;54.912;-8.392;2022-09-03T15:29:02;515.38;;;488.70;;
64403;SDS011;50726;54.912;-8.392;2022-09-03T15:31:36;434.50;;;411.50;;
64403;SDS011;50726;54.912;-8.392;2022-09-03T15:34:34;469.05;;;444.63;;
64403;SDS011;50726;54.912;-8.392;2022-09-03T15:37:28;513.83;;;487.48;;
64403;SDS011;50726;54.912;-8.392;2022-09-03T15:40:00;499.83;;;474.08;;
64403;SDS011;50726;54.912;-8.392;2022-09-03T15:42:34;487.65;;;462.48;;
64403;SDS011;50726;54.912;-8.392;2022-09-03T15:48:00;464.73;;;440.30;;
64403;SDS011;50726;54.912;-8.392;2022-09-03T15:50:34;466.60;;;442.38;;
64403;SDS011;50726;54.912;-8.392;2022-09-03T15:58:33;472.73;;;447.75;;
64403;SDS011;50726;54.912;-8.392;2022-09-03T16:04:21;487.85;;;462.15;;
64403;SDS011;50726;54.912;-8.392;2022-09-03T16:07:02;496.23;;;469.50;;
64403;SDS011;50726;54.912;-8.392;2022-09-03T16:15:13;480.00;;;454.75;;
64403;SDS011;50726;54.912;-8.392;2022-09-03T16:20:35;496.45;;;470.42;;
64403;SDS011;50726;54.912;-8.392;2022-09-03T16:26:23;462.45;;;437.80;;
64403;SDS011;50726;54.912;-8.392;2022-09-03T16:28:48;505.55;;;478.85;;
64403;SDS011;50726;54.912;-8.392;2022-09-03T16:31:31;474.88;;;449.65;;
64403;SDS011;50726;54.912;-8.392;2022-09-03T16:40:15;419.50;;;396.13;;
64403;SDS011;50726;54.912;-8.392;2022-09-03T16:48:33;469.05;;;442.90;;
64403;SDS011;50726;54.912;-8.392;2022-09-03T16:53:44;482.33;;;455.98;;
64403;SDS011;50726;54.912;-8.392;2022-09-03T16:56:57;471.77;;;445.90;;
64403;SDS011;50726;54.912;-8.392;2022-09-03T17:10:16;416.40;;;392.77;;
64403;SDS011;50726;54.912;-8.392;2022-09-03T17:30:08;405.10;;;381.65;;
64403;SDS011;50726;54.912;-8.392;2022-09-03T17:35:53;453.85;;;427.80;;
64403;SDS011;50726;54.912;-8.392;2022-09-03T17:58:38;472.85;;;447.13;;
64403;SDS011;50726;54.912;-8.392;2022-09-03T18:01:12;402.25;;;379.45;;
64403;SDS011;50726;54.912;-8.392;2022-09-03T18:03:47;425.67;;;401.50;;
64403;SDS011;50726;54.912;-8.392;2022-09-03T18:06:25;386.27;;;364.30;;
64403;SDS011;50726;54.912;-8.392;2022-09-03T18:11:55;417.58;;;393.85;;
64403;SDS011;50726;54.912;-8.392;2022-09-03T18:17:06;472.33;;;446.17;;
64403;SDS011;50726;54.912;-8.392;2022-09-03T18:19:54;455.80;;;430.20;;
64403;SDS011;50726;54.912;-8.392;2022-09-03T18:25:55;448.55;;;423.38;;
64403;SDS011;50726;54.912;-8.392;2022-09-03T18:28:49;427.55;;;403.13;;
64403;SDS011;50726;54.912;-8.392;2022-09-03T18:31:40;466.70;;;440.20;;
64403;SDS011;50726;54.912;-8.392;2022-09-03T18:34:30;422.40;;;397.77;;
64403;SDS011;50726;54.912;-8.392;2022-09-03T18:37:21;448.65;;;422.30;;
64403;SDS011;50726;54.912;-8.392;2022-09-03T18:40:08;440.92;;;415.23;;
64403;SDS011;50726;54.912;-8.392;2022-09-03T18:43:06;442.52;;;416.73;;
64403;SDS011;50726;54.912;-8.392;2022-09-03T18:46:07;450.42;;;423.98;;
64403;SDS011;50726;54.912;-8.392;2022-09-03T18:52:25;427.27;;;401.60;;
64403;SDS011;50726;54.912;-8.392;2022-09-03T18:58:52;416.88;;;392.17;;
64403;SDS011;50726;54.912;-8.392;2022-09-03T19:01:45;435.83;;;409.98;;
64403;SDS011;50726;54.912;-8.392;2022-09-03T19:04:35;439.23;;;412.27;;
64403;SDS011;50726;54.912;-8.392;2022-09-03T19:07:26;419.35;;;394.13;;
64403;SDS011;50726;54.912;-8.392;2022-09-03T19:10:21;408.00;;;383.50;;
64403;SDS011;50726;54.912;-8.392;2022-09-03T19:25:23;394.73;;;370.70;;
64403;SDS011;50726;54.912;-8.392;2022-09-03T19:28:24;398.63;;;374.13;;
64403;SDS011;50726;54.912;-8.392;2022-09-03T19:43:28;381.55;;;358.10;;
64403;SDS011;50726;54.912;-8.392;2022-09-03T19:46:30;384.65;;;360.85;;
64403;SDS011;50726;54.912;-8.392;2022-09-03T19:55:33;370.75;;;347.25;;
64403;SDS011;50726;54.912;-8.392;2022-09-03T19:58:21;367.48;;;344.67;;
64403;SDS011;50726;54.912;-8.392;2022-09-03T20:01:07;337.92;;;317.20;;
64403;SDS011;50726;54.912;-8.392;2022-09-03T20:03:53;369.88;;;346.98;;
64403;SDS011;50726;54.912;-8.392;2022-09-03T20:06:42;344.95;;;324.08;;
64403;SDS011;50726;54.912;-8.392;2022-09-03T20:09:29;290.80;;;272.92;;
64403;SDS011;50726;54.912;-8.392;2022-09-03T20:12:18;350.98;;;329.85;;
64403;SDS011;50726;54.912;-8.392;2022-09-03T20:28:01;208.73;;;195.68;;
64403;SDS011;50726;54.912;-8.392;2022-09-03T20:33:14;192.23;;;180.52;;
64403;SDS011;50726;54.912;-8.392;2022-09-03T20:52:00;198.05;;;186.75;;
64403;SDS011;50726;54.912;-8.392;2022-09-03T20:54:51;211.38;;;199.18;;
64403;SDS011;50726;54.912;-8.392;2022-09-03T21:03:02;238.55;;;225.82;;
64403;SDS011;50726;54.912;-8.392;2022-09-03T21:11:18;279.48;;;264.23;;